x

Buoy I01 - Eastern Maine Shelf (44034) Wave Buoy

9:04 - Sun 28th Dec 2014 All times are EST. -5 hours from GMT.

  • Sig Wave height 4.6ft
  • Peak Period 6s
  • Wind
    20mph, 25mph gusts
  • Sea Temp 47°f
  • Luft Temp 44°f
  • Sea Pressure 1009.2mb
  • Buoy I01 - Eastern Maine Shelf
  • Buoy I01 - Eastern Maine Shelf

More Historic Weather Station data

Upgrade to MSW Pro to gain access to the past 30 days of data for over 8000 Wavebouys and Weather Stations around the globe.

Join Pro

Comparision Forecast

View Surf forecast
   
So 12/28 9:04 4.5ft 6s 20 25 mph 1009.2mb 47f 44f
8:04 4.5ft 6s 18 22 mph 1008.6mb 47f 44f
7:04  -   -  20 22 mph 1007.5mb - 45f
6:04 5.5ft 6s 18 22 mph 1006.5mb 47f 46f
5:04 5.5ft 6s 20 22 mph 1005.1mb 47f 46f
1:04 10ft 8s 25 31 mph 1002.4mb 47f 47f
12:04 8ft 8s 20 27 mph 1002.6mb 47f 46f
11:04 7ft 6s 27 31 mph 1004.3mb 47f 46f
10:04 7ft 6s 22 27 mph 1005.6mb 47f 47f
9:04 7ft 6s 22 27 mph 1005.6mb 47f 47f
8:04 6.5ft 6s 25 29 mph 1005.9mb 47f 46f
7:04 5.5ft 5s 25 27 mph 1006.7mb 47f 47f
4:04 4.5ft 5s  -  mph - 47f -
12:04 1.6ft 4s 16 18 mph 1013.8mb 47f 46f
Sa 12/27 11:04 1.6ft 5s 9 11 mph 1015.2mb 47f 46f
10:04 2ft 5s 7 9 mph 1016.6mb 47f 45f
9:04 2ft 5s 9
mph
1017.7mb 47f 45f
8:04 2ft 5s 9 11 mph 1018.2mb 47f 46f
7:04 0.7ft  -  9 11 mph 1017.7mb 47f 46f
6:04 2.5ft 5s 11
mph
1018.1mb 47f 46f
5:04 2.5ft 5s 9 13 mph 1017.9mb 47f 46f
4:04 2.5ft 5s 11 16 mph 1017.7mb 47f 46f
3:04 2.5ft 5s 16 20 mph 1017.6mb 47f 46f
2:04 2.5ft 5s 13 18 mph 1017.4mb 47f 46f
1:04 3.5ft 5s 13 18 mph 1017.7mb 47f 46f
12:04 3ft 5s 13 18 mph 1017.9mb 47f 45f
11:04 4ft 5s 18 20 mph 1018.7mb 47f 45f
10:04 4ft 5s 18 22 mph 1019.4mb 47f 45f
9:04 3.5ft 6s 18 22 mph 1019.1mb 47f 45f
8:04 3.5ft 8s 18 20 mph 1018.6mb 47f 44f
7:04 3ft 5s 16 18 mph 1017.9mb 47f 44f
6:04 3.5ft 6s 13 16 mph 1017.5mb 47f 43f
5:04 4ft 6s 13 16 mph 1016.9mb 47f 43f
4:04 4ft 6s 11 13 mph 1016.6mb 47f 42f
3:04 4.5ft 6s 13 18 mph 1016.5mb 47f 43f
2:04 4.5ft 6s 16 20 mph 1016.3mb 47f 43f
12:04 4.5ft 8s 18 22 mph 1016.2mb 47f 44f
Fr 12/26 11:04 4.5ft 8s 18 20 mph 1016.7mb 47f 44f
10:04 4.5ft 8s 16 20 mph 1017mb 47f 45f
9:04 4.5ft 6s 18 20 mph 1016.7mb 47f 45f
8:04 5ft 6s 16 20 mph 1016.6mb 47f 45f
7:04 4.5ft 6s 16 18 mph 1016.3mb 47f 45f
6:04 5ft 6s 16 20 mph 1016.2mb 47f 46f
5:04 5.5ft 8s 13 16 mph 1015.8mb 47f 46f
4:04 5ft 8s 18 22 mph 1015.5mb 47f 47f
3:04 6ft 8s 18 22 mph 1014.7mb 47f 47f
2:04 6ft 6s 16 20 mph 1014.4mb 47f 47f
1:04 6ft 8s  -  mph - 47f -
12:04 7ft 8s  -  mph - 47f -
11:04 8ft 8s  -  mph - 47f -
9:04 7.5ft 6s 22 29 mph 1014.5mb 47f 45f
8:04 7ft 8s 25 31 mph 1013.7mb 47f 45f
7:04 8ft 8s 25 29 mph 1012.7mb 47f 45f
6:04 7.5ft 6s 25 29 mph 1012.2mb 47f 45f
5:04 7.5ft 8s 22 29 mph 1011.1mb 47f 45f
4:04 8.5ft 8s 22 29 mph 1010.4mb 47f 45f
3:04 8ft 8s 25 31 mph 1010.3mb 47f 45f
2:04 9ft 8s 25 29 mph 1009.7mb 47f 45f
1:04 8.5ft 8s 27 31 mph 1006.6mb 47f 46f
12:04 8.5ft 8s 27 31 mph 1006.6mb 47f 46f
Do 12/25 11:04 10ft 8s 29 34 mph 1005.8mb 47f 47f
10:04 10.5ft 8s 29 36 mph 1005.6mb 47f 47f
9:04 9ft 8s 27 31 mph 1004.3mb 47f 48f
8:04 8.5ft 8s 22 27 mph 1004.1mb 47f 47f
7:04 8ft 8s 22 27 mph 1002.7mb 47f 48f
6:04 8ft 8s 20 27 mph 1001mb 47f 48f
5:04 8ft 8s 20 25 mph 1000.1mb 47f 49f
4:04 7.5ft 8s 20 22 mph 998.7mb 47f 48f
3:04 8.5ft 8s 20 25 mph 997.2mb 47f 48f
2:04 8ft 8s 22 29 mph 995.7mb 47f 49f
1:04 8ft 8s 22 29 mph 994.6mb 47f 50f
12:04 9ft 8s 25 29 mph 994.6mb 47f 51f
11:04 8ft 8s 22 27 mph 994.8mb 47f 52f
10:04 9ft 8s 22 27 mph 996.2mb 47f 52f
9:04 9.5ft 8s 22 27 mph 995.4mb 47f 52f
8:04 9ft 8s 25 29 mph 996.3mb 47f 52f
7:04 8ft 8s 22 25 mph 997.3mb 47f 52f
6:04  -   -  18 22 mph 998mb - 52f
5:04 7ft 8s 20 22 mph 998.5mb 47f 53f